Algoma, Wisconsin
Current Conditions -  °F | °C
As of 3:15 PM on Saturday 25 Oct 2014 (Local Time) from KSUE Reporting Station
Clear Clear  
Wind Chill: 63°   Ceiling: Unl
Heat Index: 63°   Visibility: 10mi
Dew Point: 34°   Wind: 18mph
Humidity: 34%   Direction: 290°WNW
Pressure: 29.79"   Gusts: 25mph
Location:  44.61°N, 87.43°W
Report Text: KSUE 252015Z AUTO 29016G22KT 10SM CLR 17/01 A2979 RMK AO1
Loading
Personal Weather Stations






























Interactive Weather Map
Tropical Storm Tracking
New forecast layout! Learn more

10-Day Weather Forecast

Advertisements
Track Severe Weather on mobile